sensor_id;sensor_type;location;lat;lon;timestamp;P1;durP1;ratioP1;P2;durP2;ratioP2
4971;SDS011;2501;51.214;6.768;2022-10-01T00:01:56;7.47;;;4.90;;
4971;SDS011;2501;51.214;6.768;2022-10-01T00:04:25;6.30;;;4.93;;
4971;SDS011;2501;51.214;6.768;2022-10-01T00:06:53;6.43;;;5.10;;
4971;SDS011;2501;51.214;6.768;2022-10-01T00:09:23;7.80;;;5.00;;
4971;SDS011;2501;51.214;6.768;2022-10-01T00:11:52;6.32;;;5.72;;
4971;SDS011;2501;51.214;6.768;2022-10-01T00:14:20;8.40;;;5.00;;
4971;SDS011;2501;51.214;6.768;2022-10-01T00:16:51;7.25;;;5.88;;
4971;SDS011;2501;51.214;6.768;2022-10-01T00:19:20;8.60;;;5.97;;
4971;SDS011;2501;51.214;6.768;2022-10-01T00:21:48;10.30;;;6.70;;
4971;SDS011;2501;51.214;6.768;2022-10-01T00:24:16;7.22;;;5.60;;
4971;SDS011;2501;51.214;6.768;2022-10-01T00:26:45;9.00;;;7.00;;
4971;SDS011;2501;51.214;6.768;2022-10-01T00:29:14;8.27;;;7.03;;
4971;SDS011;2501;51.214;6.768;2022-10-01T00:31:42;7.38;;;6.65;;
4971;SDS011;2501;51.214;6.768;2022-10-01T00:34:13;13.35;;;7.80;;
4971;SDS011;2501;51.214;6.768;2022-10-01T00:36:41;8.70;;;7.70;;
4971;SDS011;2501;51.214;6.768;2022-10-01T00:39:10;8.43;;;6.63;;
4971;SDS011;2501;51.214;6.768;2022-10-01T00:41:39;13.55;;;7.10;;
4971;SDS011;2501;51.214;6.768;2022-10-01T00:46:57;9.15;;;7.88;;
4971;SDS011;2501;51.214;6.768;2022-10-01T00:49:32;13.68;;;8.90;;
4971;SDS011;2501;51.214;6.768;2022-10-01T00:52:04;13.93;;;8.35;;
4971;SDS011;2501;51.214;6.768;2022-10-01T00:54:38;9.90;;;7.70;;
4971;SDS011;2501;51.214;6.768;2022-10-01T00:57:11;12.03;;;9.10;;
4971;SDS011;2501;51.214;6.768;2022-10-01T00:59:43;10.52;;;8.50;;
4971;SDS011;2501;51.214;6.768;2022-10-01T01:02:12;12.60;;;8.10;;
4971;SDS011;2501;51.214;6.768;2022-10-01T01:04:43;11.27;;;7.82;;
4971;SDS011;2501;51.214;6.768;2022-10-01T01:07:12;11.25;;;8.50;;
4971;SDS011;2501;51.214;6.768;2022-10-01T01:09:42;9.93;;;7.85;;
4971;SDS011;2501;51.214;6.768;2022-10-01T01:12:17;9.27;;;7.80;;
4971;SDS011;2501;51.214;6.768;2022-10-01T01:14:55;13.00;;;7.73;;
4971;SDS011;2501;51.214;6.768;2022-10-01T01:17:37;12.18;;;8.88;;
4971;SDS011;2501;51.214;6.768;2022-10-01T01:20:16;11.13;;;7.80;;
4971;SDS011;2501;51.214;6.768;2022-10-01T01:22:59;12.60;;;8.00;;
4971;SDS011;2501;51.214;6.768;2022-10-01T01:25:43;9.30;;;7.82;;
4971;SDS011;2501;51.214;6.768;2022-10-01T01:28:20;10.07;;;8.48;;
4971;SDS011;2501;51.214;6.768;2022-10-01T01:30:54;11.02;;;7.60;;
4971;SDS011;2501;51.214;6.768;2022-10-01T01:33:26;9.82;;;7.18;;
4971;SDS011;2501;51.214;6.768;2022-10-01T01:35:58;9.70;;;8.17;;
4971;SDS011;2501;51.214;6.768;2022-10-01T01:38:31;8.32;;;6.90;;
4971;SDS011;2501;51.214;6.768;2022-10-01T01:41:04;10.65;;;7.68;;
4971;SDS011;2501;51.214;6.768;2022-10-01T01:43:38;9.45;;;7.20;;
4971;SDS011;2501;51.214;6.768;2022-10-01T01:46:11;10.43;;;7.43;;
4971;SDS011;2501;51.214;6.768;2022-10-01T01:48:41;11.07;;;8.03;;
4971;SDS011;2501;51.214;6.768;2022-10-01T01:51:15;9.25;;;7.75;;
4971;SDS011;2501;51.214;6.768;2022-10-01T01:53:50;9.70;;;7.65;;
4971;SDS011;2501;51.214;6.768;2022-10-01T01:56:18;10.02;;;8.00;;
4971;SDS011;2501;51.214;6.768;2022-10-01T01:58:50;11.57;;;8.10;;
4971;SDS011;2501;51.214;6.768;2022-10-01T02:01:29;10.13;;;8.48;;
4971;SDS011;2501;51.214;6.768;2022-10-01T02:03:59;9.90;;;8.35;;
4971;SDS011;2501;51.214;6.768;2022-10-01T02:06:30;10.52;;;8.70;;
4971;SDS011;2501;51.214;6.768;2022-10-01T02:09:11;14.38;;;10.00;;
4971;SDS011;2501;51.214;6.768;2022-10-01T02:11:45;10.60;;;9.05;;
4971;SDS011;2501;51.214;6.768;2022-10-01T02:14:29;10.25;;;8.40;;
4971;SDS011;2501;51.214;6.768;2022-10-01T02:17:07;11.75;;;9.50;;
4971;SDS011;2501;51.214;6.768;2022-10-01T02:19:44;9.20;;;8.20;;
4971;SDS011;2501;51.214;6.768;2022-10-01T02:22:17;9.00;;;8.10;;
4971;SDS011;2501;51.214;6.768;2022-10-01T02:24:49;13.35;;;9.70;;
4971;SDS011;2501;51.214;6.768;2022-10-01T02:27:23;12.27;;;8.30;;
4971;SDS011;2501;51.214;6.768;2022-10-01T02:29:59;9.75;;;7.65;;
4971;SDS011;2501;51.214;6.768;2022-10-01T02:32:32;11.93;;;9.25;;
4971;SDS011;2501;51.214;6.768;2022-10-01T02:35:02;9.82;;;8.15;;
4971;SDS011;2501;51.214;6.768;2022-10-01T02:37:33;11.45;;;9.27;;
4971;SDS011;2501;51.214;6.768;2022-10-01T02:40:05;12.07;;;9.30;;
4971;SDS011;2501;51.214;6.768;2022-10-01T02:42:39;9.68;;;8.50;;
4971;SDS011;2501;51.214;6.768;2022-10-01T02:45:14;12.82;;;9.57;;
4971;SDS011;2501;51.214;6.768;2022-10-01T02:47:48;11.15;;;9.00;;
4971;SDS011;2501;51.214;6.768;2022-10-01T02:50:21;11.18;;;8.88;;
4971;SDS011;2501;51.214;6.768;2022-10-01T02:52:55;13.00;;;9.45;;
4971;SDS011;2501;51.214;6.768;2022-10-01T02:55:29;10.40;;;8.20;;
4971;SDS011;2501;51.214;6.768;2022-10-01T02:58:02;10.70;;;8.30;;
4971;SDS011;2501;51.214;6.768;2022-10-01T03:00:31;8.70;;;7.63;;
4971;SDS011;2501;51.214;6.768;2022-10-01T03:02:59;7.50;;;6.70;;
4971;SDS011;2501;51.214;6.768;2022-10-01T03:05:28;9.88;;;6.63;;
4971;SDS011;2501;51.214;6.768;2022-10-01T03:07:56;8.00;;;7.00;;
4971;SDS011;2501;51.214;6.768;2022-10-01T03:10:24;11.20;;;6.40;;
4971;SDS011;2501;51.214;6.768;2022-10-01T03:12:53;7.97;;;7.10;;
4971;SDS011;2501;51.214;6.768;2022-10-01T03:15:21;9.45;;;6.15;;
4971;SDS011;2501;51.214;6.768;2022-10-01T03:17:52;8.68;;;6.32;;
4971;SDS011;2501;51.214;6.768;2022-10-01T03:20:21;7.45;;;6.00;;
4971;SDS011;2501;51.214;6.768;2022-10-01T03:22:50;6.70;;;6.10;;
4971;SDS011;2501;51.214;6.768;2022-10-01T03:25:19;8.23;;;5.67;;
4971;SDS011;2501;51.214;6.768;2022-10-01T03:27:47;5.63;;;5.17;;
4971;SDS011;2501;51.214;6.768;2022-10-01T03:30:16;6.47;;;5.38;;
4971;SDS011;2501;51.214;6.768;2022-10-01T03:32:45;6.60;;;5.40;;
4971;SDS011;2501;51.214;6.768;2022-10-01T03:35:15;5.90;;;5.40;;
4971;SDS011;2501;51.214;6.768;2022-10-01T03:37:44;6.20;;;5.60;;
4971;SDS011;2501;51.214;6.768;2022-10-01T03:40:12;6.23;;;5.80;;
4971;SDS011;2501;51.214;6.768;2022-10-01T03:42:41;8.88;;;5.70;;
4971;SDS011;2501;51.214;6.768;2022-10-01T03:45:09;6.10;;;5.50;;
4971;SDS011;2501;51.214;6.768;2022-10-01T03:47:38;7.20;;;5.57;;
4971;SDS011;2501;51.214;6.768;2022-10-01T03:50:06;5.97;;;5.10;;
4971;SDS011;2501;51.214;6.768;2022-10-01T03:52:38;5.90;;;5.40;;
4971;SDS011;2501;51.214;6.768;2022-10-01T03:55:07;7.45;;;5.57;;
4971;SDS011;2501;51.214;6.768;2022-10-01T03:57:36;6.50;;;5.80;;
4971;SDS011;2501;51.214;6.768;2022-10-01T04:00:04;6.70;;;5.80;;
4971;SDS011;2501;51.214;6.768;2022-10-01T04:02:33;6.20;;;5.60;;
4971;SDS011;2501;51.214;6.768;2022-10-01T04:05:02;6.38;;;5.82;;
4971;SDS011;2501;51.214;6.768;2022-10-01T04:07:31;7.18;;;6.47;;
4971;SDS011;2501;51.214;6.768;2022-10-01T04:10:02;7.50;;;5.97;;
4971;SDS011;2501;51.214;6.768;2022-10-01T04:12:31;6.00;;;5.40;;
4971;SDS011;2501;51.214;6.768;2022-10-01T04:14:59;9.27;;;6.40;;
4971;SDS011;2501;51.214;6.768;2022-10-01T04:17:28;8.75;;;6.15;;
4971;SDS011;2501;51.214;6.768;2022-10-01T04:19:56;6.82;;;6.13;;
4971;SDS011;2501;51.214;6.768;2022-10-01T04:22:24;5.85;;;5.35;;
4971;SDS011;2501;51.214;6.768;2022-10-01T04:24:53;5.90;;;5.40;;
4971;SDS011;2501;51.214;6.768;2022-10-01T04:27:24;9.52;;;5.53;;
4971;SDS011;2501;51.214;6.768;2022-10-01T04:29:52;5.53;;;4.90;;
4971;SDS011;2501;51.214;6.768;2022-10-01T04:32:21;5.47;;;4.80;;
4971;SDS011;2501;51.214;6.768;2022-10-01T04:34:49;4.95;;;4.55;;
4971;SDS011;2501;51.214;6.768;2022-10-01T04:37:20;5.05;;;4.60;;
4971;SDS011;2501;51.214;6.768;2022-10-01T04:39:51;4.88;;;4.53;;
4971;SDS011;2501;51.214;6.768;2022-10-01T04:42:20;4.88;;;4.47;;
4971;SDS011;2501;51.214;6.768;2022-10-01T04:44:51;4.88;;;4.40;;
4971;SDS011;2501;51.214;6.768;2022-10-01T04:47:19;5.38;;;4.20;;
4971;SDS011;2501;51.214;6.768;2022-10-01T04:49:48;4.72;;;4.32;;
4971;SDS011;2501;51.214;6.768;2022-10-01T04:52:16;4.40;;;4.10;;
4971;SDS011;2501;51.214;6.768;2022-10-01T04:54:44;4.20;;;3.90;;
4971;SDS011;2501;51.214;6.768;2022-10-01T04:57:16;3.55;;;3.25;;
4971;SDS011;2501;51.214;6.768;2022-10-01T04:59:45;4.80;;;4.43;;
4971;SDS011;2501;51.214;6.768;2022-10-01T05:02:17;4.68;;;3.60;;
4971;SDS011;2501;51.214;6.768;2022-10-01T05:04:45;4.47;;;4.00;;
4971;SDS011;2501;51.214;6.768;2022-10-01T05:07:14;3.05;;;2.85;;
4971;SDS011;2501;51.214;6.768;2022-10-01T05:09:43;3.30;;;3.00;;
4971;SDS011;2501;51.214;6.768;2022-10-01T05:12:11;2.85;;;2.65;;
4971;SDS011;2501;51.214;6.768;2022-10-01T05:14:40;2.80;;;2.60;;
4971;SDS011;2501;51.214;6.768;2022-10-01T05:17:08;6.72;;;2.90;;
4971;SDS011;2501;51.214;6.768;2022-10-01T05:19:39;2.92;;;2.72;;
4971;SDS011;2501;51.214;6.768;2022-10-01T05:22:08;4.50;;;3.30;;
4971;SDS011;2501;51.214;6.768;2022-10-01T05:24:36;3.80;;;2.95;;
4971;SDS011;2501;51.214;6.768;2022-10-01T05:27:05;3.55;;;3.25;;
4971;SDS011;2501;51.214;6.768;2022-10-01T05:29:37;3.58;;;2.80;;
4971;SDS011;2501;51.214;6.768;2022-10-01T05:32:06;2.63;;;2.43;;
4971;SDS011;2501;51.214;6.768;2022-10-01T05:34:38;3.77;;;2.50;;
4971;SDS011;2501;51.214;6.768;2022-10-01T05:37:07;4.55;;;2.40;;
4971;SDS011;2501;51.214;6.768;2022-10-01T05:39:36;2.20;;;2.00;;
4971;SDS011;2501;51.214;6.768;2022-10-01T05:42:04;2.50;;;1.90;;
4971;SDS011;2501;51.214;6.768;2022-10-01T05:44:33;2.15;;;1.45;;
4971;SDS011;2501;51.214;6.768;2022-10-01T05:47:02;7.07;;;1.60;;
4971;SDS011;2501;51.214;6.768;2022-10-01T05:49:32;3.47;;;1.20;;
4971;SDS011;2501;51.214;6.768;2022-10-01T05:52:03;1.58;;;1.00;;
4971;SDS011;2501;51.214;6.768;2022-10-01T05:54:31;1.75;;;1.00;;
4971;SDS011;2501;51.214;6.768;2022-10-01T05:57:00;0.80;;;0.70;;
4971;SDS011;2501;51.214;6.768;2022-10-01T05:59:29;1.50;;;0.88;;
4971;SDS011;2501;51.214;6.768;2022-10-01T06:01:57;1.60;;;0.70;;
4971;SDS011;2501;51.214;6.768;2022-10-01T06:04:26;2.60;;;0.80;;
4971;SDS011;2501;51.214;6.768;2022-10-01T06:06:54;0.70;;;0.57;;
4971;SDS011;2501;51.214;6.768;2022-10-01T06:09:25;1.00;;;0.70;;
4971;SDS011;2501;51.214;6.768;2022-10-01T06:11:54;0.73;;;0.70;;
4971;SDS011;2501;51.214;6.768;2022-10-01T06:14:22;0.70;;;0.55;;
4971;SDS011;2501;51.214;6.768;2022-10-01T06:16:52;0.70;;;0.50;;
4971;SDS011;2501;51.214;6.768;2022-10-01T06:19:20;0.60;;;0.60;;
4971;SDS011;2501;51.214;6.768;2022-10-01T06:21:49;0.70;;;0.60;;
4971;SDS011;2501;51.214;6.768;2022-10-01T06:24:18;0.90;;;0.60;;
4971;SDS011;2501;51.214;6.768;2022-10-01T06:26:49;0.70;;;0.60;;
4971;SDS011;2501;51.214;6.768;2022-10-01T06:29:18;1.10;;;0.57;;
4971;SDS011;2501;51.214;6.768;2022-10-01T06:31:46;0.70;;;0.60;;
4971;SDS011;2501;51.214;6.768;2022-10-01T06:34:15;1.10;;;0.60;;
4971;SDS011;2501;51.214;6.768;2022-10-01T06:36:46;0.70;;;0.50;;
4971;SDS011;2501;51.214;6.768;2022-10-01T06:39:14;0.70;;;0.50;;
4971;SDS011;2501;51.214;6.768;2022-10-01T06:41:43;1.80;;;0.77;;
4971;SDS011;2501;51.214;6.768;2022-10-01T06:44:14;1.40;;;0.70;;
4971;SDS011;2501;51.214;6.768;2022-10-01T06:46:43;1.40;;;0.70;;
4971;SDS011;2501;51.214;6.768;2022-10-01T06:49:11;3.10;;;1.95;;
4971;SDS011;2501;51.214;6.768;2022-10-01T06:51:44;1.80;;;1.70;;
4971;SDS011;2501;51.214;6.768;2022-10-01T06:54:25;1.67;;;1.58;;
4971;SDS011;2501;51.214;6.768;2022-10-01T06:56:53;1.52;;;1.42;;
4971;SDS011;2501;51.214;6.768;2022-10-01T06:59:24;1.30;;;0.50;;
4971;SDS011;2501;51.214;6.768;2022-10-01T07:01:53;1.00;;;0.60;;
4971;SDS011;2501;51.214;6.768;2022-10-01T07:04:21;2.30;;;1.50;;
4971;SDS011;2501;51.214;6.768;2022-10-01T07:06:51;1.60;;;0.50;;
4971;SDS011;2501;51.214;6.768;2022-10-01T07:09:22;1.20;;;0.63;;
4971;SDS011;2501;51.214;6.768;2022-10-01T07:11:53;1.00;;;0.70;;
4971;SDS011;2501;51.214;6.768;2022-10-01T07:14:24;0.95;;;0.50;;
4971;SDS011;2501;51.214;6.768;2022-10-01T07:16:52;0.70;;;0.68;;
4971;SDS011;2501;51.214;6.768;2022-10-01T07:19:21;0.90;;;0.70;;
4971;SDS011;2501;51.214;6.768;2022-10-01T07:21:49;1.30;;;0.80;;
4971;SDS011;2501;51.214;6.768;2022-10-01T07:24:17;0.80;;;0.60;;
4971;SDS011;2501;51.214;6.768;2022-10-01T07:26:46;2.10;;;0.70;;
4971;SDS011;2501;51.214;6.768;2022-10-01T07:29:15;3.40;;;0.80;;
4971;SDS011;2501;51.214;6.768;2022-10-01T07:31:46;1.30;;;0.80;;
4971;SDS011;2501;51.214;6.768;2022-10-01T07:34:14;0.88;;;0.60;;
4971;SDS011;2501;51.214;6.768;2022-10-01T07:36:43;2.38;;;0.90;;
4971;SDS011;2501;51.214;6.768;2022-10-01T07:39:11;1.00;;;0.80;;
4971;SDS011;2501;51.214;6.768;2022-10-01T07:41:40;1.23;;;0.50;;
4971;SDS011;2501;51.214;6.768;2022-10-01T07:44:08;1.45;;;0.60;;
4971;SDS011;2501;51.214;6.768;2022-10-01T07:46:38;2.42;;;0.70;;
4971;SDS011;2501;51.214;6.768;2022-10-01T07:49:10;1.70;;;0.75;;
4971;SDS011;2501;51.214;6.768;2022-10-01T07:51:39;0.82;;;0.82;;
4971;SDS011;2501;51.214;6.768;2022-10-01T07:54:12;2.58;;;1.00;;
4971;SDS011;2501;51.214;6.768;2022-10-01T07:56:43;1.15;;;0.75;;
4971;SDS011;2501;51.214;6.768;2022-10-01T07:59:12;3.40;;;1.30;;
4971;SDS011;2501;51.214;6.768;2022-10-01T08:01:41;1.30;;;0.80;;
4971;SDS011;2501;51.214;6.768;2022-10-01T08:04:12;2.30;;;0.90;;
4971;SDS011;2501;51.214;6.768;2022-10-01T08:06:53;1.20;;;1.10;;
4971;SDS011;2501;51.214;6.768;2022-10-01T08:09:21;2.25;;;1.50;;
4971;SDS011;2501;51.214;6.768;2022-10-01T08:11:49;1.55;;;0.93;;
4971;SDS011;2501;51.214;6.768;2022-10-01T08:14:18;0.90;;;0.70;;
4971;SDS011;2501;51.214;6.768;2022-10-01T08:16:47;2.40;;;0.90;;
4971;SDS011;2501;51.214;6.768;2022-10-01T08:19:18;0.90;;;0.80;;
4971;SDS011;2501;51.214;6.768;2022-10-01T08:21:46;2.78;;;0.70;;
4971;SDS011;2501;51.214;6.768;2022-10-01T08:24:15;3.70;;;0.90;;
4971;SDS011;2501;51.214;6.768;2022-10-01T08:26:44;2.80;;;0.90;;
4971;SDS011;2501;51.214;6.768;2022-10-01T08:29:12;3.00;;;1.05;;
4971;SDS011;2501;51.214;6.768;2022-10-01T08:31:41;1.90;;;1.20;;
4971;SDS011;2501;51.214;6.768;2022-10-01T08:34:09;1.60;;;0.80;;
4971;SDS011;2501;51.214;6.768;2022-10-01T08:36:40;2.50;;;0.85;;
4971;SDS011;2501;51.214;6.768;2022-10-01T08:39:09;1.50;;;1.08;;
4971;SDS011;2501;51.214;6.768;2022-10-01T08:41:41;2.33;;;1.20;;
4971;SDS011;2501;51.214;6.768;2022-10-01T08:44:21;2.13;;;1.00;;
4971;SDS011;2501;51.214;6.768;2022-10-01T08:46:53;2.00;;;1.13;;
4971;SDS011;2501;51.214;6.768;2022-10-01T08:49:27;1.63;;;1.10;;
4971;SDS011;2501;51.214;6.768;2022-10-01T08:52:07;1.67;;;1.10;;
4971;SDS011;2501;51.214;6.768;2022-10-01T08:54:43;5.70;;;1.35;;
4971;SDS011;2501;51.214;6.768;2022-10-01T08:57:15;3.40;;;1.10;;
4971;SDS011;2501;51.214;6.768;2022-10-01T08:59:47;3.80;;;1.30;;
4971;SDS011;2501;51.214;6.768;2022-10-01T09:02:20;3.90;;;0.90;;
4971;SDS011;2501;51.214;6.768;2022-10-01T09:04:53;2.67;;;1.20;;
4971;SDS011;2501;51.214;6.768;2022-10-01T09:07:33;2.08;;;0.93;;
4971;SDS011;2501;51.214;6.768;2022-10-01T09:10:20;2.70;;;1.15;;
4971;SDS011;2501;51.214;6.768;2022-10-01T09:13:01;2.22;;;1.02;;
4971;SDS011;2501;51.214;6.768;2022-10-01T09:15:47;2.25;;;1.38;;
4971;SDS011;2501;51.214;6.768;2022-10-01T09:18:23;2.53;;;1.20;;
4971;SDS011;2501;51.214;6.768;2022-10-01T09:21:00;3.50;;;1.58;;
4971;SDS011;2501;51.214;6.768;2022-10-01T09:23:33;2.08;;;1.10;;
4971;SDS011;2501;51.214;6.768;2022-10-01T09:26:08;3.30;;;1.60;;
4971;SDS011;2501;51.214;6.768;2022-10-01T09:28:39;2.55;;;1.50;;
4971;SDS011;2501;51.214;6.768;2022-10-01T09:31:11;4.25;;;3.10;;
4971;SDS011;2501;51.214;6.768;2022-10-01T09:33:45;3.08;;;2.03;;
4971;SDS011;2501;51.214;6.768;2022-10-01T09:36:20;4.95;;;1.90;;
4971;SDS011;2501;51.214;6.768;2022-10-01T09:38:56;3.67;;;2.20;;
4971;SDS011;2501;51.214;6.768;2022-10-01T09:41:32;2.53;;;1.88;;
4971;SDS011;2501;51.214;6.768;2022-10-01T09:44:00;1.73;;;1.60;;
4971;SDS011;2501;51.214;6.768;2022-10-01T09:46:29;1.98;;;1.65;;
4971;SDS011;2501;51.214;6.768;2022-10-01T09:48:59;2.20;;;1.20;;
4971;SDS011;2501;51.214;6.768;2022-10-01T09:51:31;1.30;;;1.20;;
4971;SDS011;2501;51.214;6.768;2022-10-01T09:54:06;2.10;;;1.63;;
4971;SDS011;2501;51.214;6.768;2022-10-01T09:56:43;2.50;;;1.50;;
4971;SDS011;2501;51.214;6.768;2022-10-01T09:59:16;1.60;;;1.45;;
4971;SDS011;2501;51.214;6.768;2022-10-01T10:01:50;3.17;;;1.33;;
4971;SDS011;2501;51.214;6.768;2022-10-01T10:04:23;3.10;;;1.48;;
4971;SDS011;2501;51.214;6.768;2022-10-01T10:06:57;5.70;;;1.23;;
4971;SDS011;2501;51.214;6.768;2022-10-01T10:09:32;2.70;;;1.52;;
4971;SDS011;2501;51.214;6.768;2022-10-01T10:12:02;3.00;;;1.73;;
4971;SDS011;2501;51.214;6.768;2022-10-01T10:14:33;2.97;;;1.27;;
4971;SDS011;2501;51.214;6.768;2022-10-01T10:17:05;2.63;;;1.40;;
4971;SDS011;2501;51.214;6.768;2022-10-01T10:19:44;2.22;;;1.60;;
4971;SDS011;2501;51.214;6.768;2022-10-01T10:22:18;1.70;;;1.60;;
4971;SDS011;2501;51.214;6.768;2022-10-01T10:24:53;3.33;;;2.05;;
4971;SDS011;2501;51.214;6.768;2022-10-01T10:27:24;2.97;;;2.00;;
4971;SDS011;2501;51.214;6.768;2022-10-01T10:30:00;4.28;;;2.38;;
4971;SDS011;2501;51.214;6.768;2022-10-01T10:32:29;3.38;;;2.20;;
4971;SDS011;2501;51.214;6.768;2022-10-01T10:34:59;4.57;;;2.10;;
4971;SDS011;2501;51.214;6.768;2022-10-01T10:37:31;5.63;;;2.60;;
4971;SDS011;2501;51.214;6.768;2022-10-01T10:40:14;2.95;;;2.47;;
4971;SDS011;2501;51.214;6.768;2022-10-01T10:42:45;4.97;;;3.10;;
4971;SDS011;2501;51.214;6.768;2022-10-01T10:45:16;7.38;;;2.55;;
4971;SDS011;2501;51.214;6.768;2022-10-01T10:47:50;4.60;;;3.00;;
4971;SDS011;2501;51.214;6.768;2022-10-01T10:50:24;7.03;;;3.47;;
4971;SDS011;2501;51.214;6.768;2022-10-01T10:52:56;5.03;;;3.00;;
4971;SDS011;2501;51.214;6.768;2022-10-01T10:55:28;7.40;;;2.80;;
4971;SDS011;2501;51.214;6.768;2022-10-01T10:58:07;10.57;;;3.03;;
4971;SDS011;2501;51.214;6.768;2022-10-01T11:00:42;8.60;;;3.70;;
4971;SDS011;2501;51.214;6.768;2022-10-01T11:03:14;6.15;;;2.88;;
4971;SDS011;2501;51.214;6.768;2022-10-01T11:05:45;5.07;;;3.30;;
4971;SDS011;2501;51.214;6.768;2022-10-01T11:08:18;5.43;;;3.53;;
4971;SDS011;2501;51.214;6.768;2022-10-01T11:10:53;10.98;;;3.65;;
4971;SDS011;2501;51.214;6.768;2022-10-01T11:13:43;11.70;;;3.25;;
4971;SDS011;2501;51.214;6.768;2022-10-01T11:16:29;7.28;;;2.80;;
4971;SDS011;2501;51.214;6.768;2022-10-01T11:19:17;6.72;;;2.80;;
4971;SDS011;2501;51.214;6.768;2022-10-01T11:24:58;6.50;;;3.08;;
4971;SDS011;2501;51.214;6.768;2022-10-01T11:27:41;6.95;;;2.50;;
4971;SDS011;2501;51.214;6.768;2022-10-01T11:30:18;7.65;;;2.67;;
4971;SDS011;2501;51.214;6.768;2022-10-01T11:32:50;3.85;;;2.90;;
4971;SDS011;2501;51.214;6.768;2022-10-01T11:35:31;6.60;;;2.70;;
4971;SDS011;2501;51.214;6.768;2022-10-01T11:41:08;13.05;;;3.25;;
4971;SDS011;2501;51.214;6.768;2022-10-01T11:43:48;9.80;;;3.70;;
4971;SDS011;2501;51.214;6.768;2022-10-01T11:49:26;8.93;;;3.00;;
4971;SDS011;2501;51.214;6.768;2022-10-01T11:52:09;2.90;;;2.50;;
4971;SDS011;2501;51.214;6.768;2022-10-01T11:54:49;6.53;;;2.63;;
4971;SDS011;2501;51.214;6.768;2022-10-01T11:57:23;12.88;;;2.60;;
4971;SDS011;2501;51.214;6.768;2022-10-01T12:00:09;6.60;;;2.70;;
4971;SDS011;2501;51.214;6.768;2022-10-01T12:02:44;6.38;;;2.58;;
4971;SDS011;2501;51.214;6.768;2022-10-01T12:05:17;10.70;;;2.53;;
4971;SDS011;2501;51.214;6.768;2022-10-01T12:07:48;5.10;;;2.10;;
4971;SDS011;2501;51.214;6.768;2022-10-01T12:10:29;3.85;;;2.03;;
4971;SDS011;2501;51.214;6.768;2022-10-01T12:13:06;13.35;;;2.95;;
4971;SDS011;2501;51.214;6.768;2022-10-01T12:15:43;7.20;;;2.30;;
4971;SDS011;2501;51.214;6.768;2022-10-01T12:18:17;7.20;;;2.50;;
4971;SDS011;2501;51.214;6.768;2022-10-01T12:20:51;8.02;;;2.40;;
4971;SDS011;2501;51.214;6.768;2022-10-01T12:23:23;8.90;;;2.10;;
4971;SDS011;2501;51.214;6.768;2022-10-01T12:25:56;9.07;;;2.33;;
4971;SDS011;2501;51.214;6.768;2022-10-01T12:28:35;8.48;;;2.10;;
4971;SDS011;2501;51.214;6.768;2022-10-01T12:31:14;5.67;;;2.27;;
4971;SDS011;2501;51.214;6.768;2022-10-01T12:33:58;8.45;;;2.35;;
4971;SDS011;2501;51.214;6.768;2022-10-01T12:36:39;8.50;;;1.80;;
4971;SDS011;2501;51.214;6.768;2022-10-01T12:39:17;11.15;;;2.20;;
4971;SDS011;2501;51.214;6.768;2022-10-01T12:41:58;6.65;;;2.50;;
4971;SDS011;2501;51.214;6.768;2022-10-01T12:44:46;3.25;;;1.95;;
4971;SDS011;2501;51.214;6.768;2022-10-01T12:47:39;6.43;;;2.20;;
4971;SDS011;2501;51.214;6.768;2022-10-01T12:50:19;4.93;;;2.10;;
4971;SDS011;2501;51.214;6.768;2022-10-01T12:53:01;6.80;;;1.67;;
4971;SDS011;2501;51.214;6.768;2022-10-01T12:55:57;7.05;;;2.40;;
4971;SDS011;2501;51.214;6.768;2022-10-01T12:58:42;8.55;;;2.53;;
4971;SDS011;2501;51.214;6.768;2022-10-01T13:01:19;10.48;;;2.50;;
4971;SDS011;2501;51.214;6.768;2022-10-01T13:04:10;11.75;;;2.60;;
4971;SDS011;2501;51.214;6.768;2022-10-01T13:06:53;5.47;;;1.60;;
4971;SDS011;2501;51.214;6.768;2022-10-01T13:09:37;4.70;;;1.60;;
4971;SDS011;2501;51.214;6.768;2022-10-01T13:12:20;7.82;;;1.90;;
4971;SDS011;2501;51.214;6.768;2022-10-01T13:15:02;10.02;;;2.40;;
4971;SDS011;2501;51.214;6.768;2022-10-01T13:17:33;11.38;;;2.30;;
4971;SDS011;2501;51.214;6.768;2022-10-01T13:20:14;7.43;;;2.30;;
4971;SDS011;2501;51.214;6.768;2022-10-01T13:22:49;6.68;;;2.10;;
4971;SDS011;2501;51.214;6.768;2022-10-01T13:25:29;8.70;;;2.40;;
4971;SDS011;2501;51.214;6.768;2022-10-01T13:28:01;12.55;;;2.88;;
4971;SDS011;2501;51.214;6.768;2022-10-01T13:30:42;7.38;;;2.40;;
4971;SDS011;2501;51.214;6.768;2022-10-01T13:33:20;5.25;;;2.35;;
4971;SDS011;2501;51.214;6.768;2022-10-01T13:35:58;8.63;;;2.42;;
4971;SDS011;2501;51.214;6.768;2022-10-01T13:38:29;8.07;;;2.88;;
4971;SDS011;2501;51.214;6.768;2022-10-01T13:41:14;5.78;;;2.00;;
4971;SDS011;2501;51.214;6.768;2022-10-01T13:43:50;10.93;;;2.30;;
4971;SDS011;2501;51.214;6.768;2022-10-01T13:46:24;11.70;;;2.03;;
4971;SDS011;2501;51.214;6.768;2022-10-01T13:48:55;14.90;;;2.00;;
4971;SDS011;2501;51.214;6.768;2022-10-01T13:51:35;13.13;;;2.38;;
4971;SDS011;2501;51.214;6.768;2022-10-01T13:54:05;10.47;;;2.20;;
4971;SDS011;2501;51.214;6.768;2022-10-01T13:56:41;8.43;;;1.90;;
4971;SDS011;2501;51.214;6.768;2022-10-01T13:59:20;6.65;;;1.75;;
4971;SDS011;2501;51.214;6.768;2022-10-01T14:01:57;5.07;;;2.17;;
4971;SDS011;2501;51.214;6.768;2022-10-01T14:04:30;7.93;;;2.63;;
4971;SDS011;2501;51.214;6.768;2022-10-01T14:07:15;8.80;;;2.50;;
4971;SDS011;2501;51.214;6.768;2022-10-01T14:09:48;8.73;;;2.47;;
4971;SDS011;2501;51.214;6.768;2022-10-01T14:12:20;15.65;;;2.85;;
4971;SDS011;2501;51.214;6.768;2022-10-01T14:15:11;16.25;;;3.67;;
4971;SDS011;2501;51.214;6.768;2022-10-01T14:17:54;15.15;;;3.70;;
4971;SDS011;2501;51.214;6.768;2022-10-01T14:20:24;17.90;;;4.30;;
4971;SDS011;2501;51.214;6.768;2022-10-01T14:23:03;13.27;;;3.60;;
4971;SDS011;2501;51.214;6.768;2022-10-01T14:25:42;12.93;;;3.05;;
4971;SDS011;2501;51.214;6.768;2022-10-01T14:28:27;13.13;;;3.35;;
4971;SDS011;2501;51.214;6.768;2022-10-01T14:31:06;15.45;;;3.60;;
4971;SDS011;2501;51.214;6.768;2022-10-01T14:36:48;19.27;;;3.22;;
4971;SDS011;2501;51.214;6.768;2022-10-01T14:39:21;16.42;;;3.70;;
4971;SDS011;2501;51.214;6.768;2022-10-01T14:41:52;18.30;;;2.85;;
4971;SDS011;2501;51.214;6.768;2022-10-01T14:44:24;26.03;;;3.77;;
4971;SDS011;2501;51.214;6.768;2022-10-01T14:46:56;11.60;;;2.58;;
4971;SDS011;2501;51.214;6.768;2022-10-01T14:49:25;13.40;;;2.50;;
4971;SDS011;2501;51.214;6.768;2022-10-01T14:51:57;15.70;;;3.00;;
4971;SDS011;2501;51.214;6.768;2022-10-01T14:54:32;13.10;;;3.10;;
4971;SDS011;2501;51.214;6.768;2022-10-01T14:57:09;14.10;;;2.70;;
4971;SDS011;2501;51.214;6.768;2022-10-01T14:59:39;10.50;;;2.70;;
4971;SDS011;2501;51.214;6.768;2022-10-01T15:02:15;10.63;;;2.50;;
4971;SDS011;2501;51.214;6.768;2022-10-01T15:04:46;13.93;;;2.83;;
4971;SDS011;2501;51.214;6.768;2022-10-01T15:07:15;11.48;;;3.17;;
4971;SDS011;2501;51.214;6.768;2022-10-01T15:09:47;10.48;;;2.55;;
4971;SDS011;2501;51.214;6.768;2022-10-01T15:12:18;5.03;;;1.88;;
4971;SDS011;2501;51.214;6.768;2022-10-01T15:14:52;10.88;;;2.70;;
4971;SDS011;2501;51.214;6.768;2022-10-01T15:17:22;8.43;;;2.60;;
4971;SDS011;2501;51.214;6.768;2022-10-01T15:19:54;11.90;;;2.80;;
4971;SDS011;2501;51.214;6.768;2022-10-01T15:22:25;11.77;;;2.50;;
4971;SDS011;2501;51.214;6.768;2022-10-01T15:24:59;13.98;;;2.63;;
4971;SDS011;2501;51.214;6.768;2022-10-01T15:27:29;12.18;;;2.15;;
4971;SDS011;2501;51.214;6.768;2022-10-01T15:29:58;7.55;;;2.25;;
4971;SDS011;2501;51.214;6.768;2022-10-01T15:32:27;14.57;;;2.75;;
4971;SDS011;2501;51.214;6.768;2022-10-01T15:34:57;8.55;;;2.20;;
4971;SDS011;2501;51.214;6.768;2022-10-01T15:37:28;10.60;;;2.60;;
4971;SDS011;2501;51.214;6.768;2022-10-01T15:40:03;12.52;;;2.33;;
4971;SDS011;2501;51.214;6.768;2022-10-01T15:42:33;12.38;;;2.38;;
4971;SDS011;2501;51.214;6.768;2022-10-01T15:47:52;10.27;;;2.42;;
4971;SDS011;2501;51.214;6.768;2022-10-01T15:50:22;7.13;;;2.10;;
4971;SDS011;2501;51.214;6.768;2022-10-01T15:52:55;13.15;;;2.60;;
4971;SDS011;2501;51.214;6.768;2022-10-01T15:55:34;9.15;;;2.15;;
4971;SDS011;2501;51.214;6.768;2022-10-01T15:58:06;10.38;;;2.20;;
4971;SDS011;2501;51.214;6.768;2022-10-01T16:00:42;10.15;;;2.85;;
4971;SDS011;2501;51.214;6.768;2022-10-01T16:03:26;9.48;;;2.60;;
4971;SDS011;2501;51.214;6.768;2022-10-01T16:05:57;8.75;;;1.83;;